Time;durP1;ratioP1;P1;durP2;ratioP2;P2;SDS_P1;SDS_P2;PMS_P1;PMS_P2;Temp;Humidity;BMP_temperature;BMP_pressure;BME280_temperature;BME280_humidity;BME280_pressure;Samples;Min_cycle;Max_cycle;Signal;HPM_P1;HPM_P2
2021/01/20 00:00:48;;;;;;;;;;;1.90;99.90;;;;;;5083186;28;19921;-77
2021/01/20 00:03:13;;;;;;;;;;;1.80;99.90;;;;;;5073101;28;20365;-77
2021/01/20 00:05:39;;;;;;;;;;;1.70;99.90;;;;;;5072268;28;20383;-77
2021/01/20 00:08:04;;;;;;;;;;;1.60;99.90;;;;;;5073117;28;19916;-77
2021/01/20 00:10:30;;;;;;;;;;;1.40;99.90;;;;;;5069208;28;19940;-77
2021/01/20 00:12:55;;;;;;;;;;;1.30;99.90;;;;;;5072353;28;19916;-77
2021/01/20 00:15:22;;;;;;;;;;;1.20;99.90;;;;;;5072914;28;19916;-76
2021/01/20 00:17:48;;;;;;;;;;;1.10;99.90;;;;;;5072552;28;20405;-77
2021/01/20 00:20:13;;;;;;;;;;;1.00;99.90;;;;;;5070078;28;20023;-77
2021/01/20 00:22:41;;;;;;;;;;;1.00;99.90;;;;;;5072657;28;19966;-77
2021/01/20 00:25:07;;;;;;;;;;;1.00;99.90;;;;;;5074628;28;19908;-76
2021/01/20 00:27:33;;;;;;;;;;;0.90;99.90;;;;;;5077814;28;19919;-77
2021/01/20 00:29:58;;;;;;;;;;;0.80;99.90;;;;;;5083720;28;19912;-77
2021/01/20 00:32:24;;;;;;;;;;;0.80;99.90;;;;;;5080885;28;19966;-76
2021/01/20 00:34:49;;;;;;;;;;;0.70;99.90;;;;;;5071837;28;19915;-77
2021/01/20 00:37:15;;;;;;;;;;;0.70;99.90;;;;;;5070754;28;19958;-77
2021/01/20 00:39:40;;;;;;;;;;;0.60;99.90;;;;;;5072195;28;19908;-76
2021/01/20 00:42:06;;;;;;;;;;;0.50;99.90;;;;;;5072604;28;19916;-76
2021/01/20 00:44:31;;;;;;;;;;;0.50;99.90;;;;;;5071031;28;19908;-77
2021/01/20 00:46:56;;;;;;;;;;;0.40;99.90;;;;;;5071951;28;20407;-76
2021/01/20 00:49:22;;;;;;;;;;;0.30;99.90;;;;;;5072164;28;19919;-77
2021/01/20 00:51:48;;;;;;;;;;;0.20;99.90;;;;;;5072235;28;19915;-77
2021/01/20 00:54:13;;;;;;;;;;;0.20;99.90;;;;;;5071986;28;19951;-76
2021/01/20 00:56:38;;;;;;;;;;;0.10;99.90;;;;;;5071628;28;19909;-76
2021/01/20 00:59:04;;;;;;;;;;;0.10;99.90;;;;;;5075368;28;20400;-77
2021/01/20 01:01:29;;;;;;;;;;;0.10;99.90;;;;;;5077538;28;20024;-77
2021/01/20 01:03:55;;;;;;;;;;;0.00;99.90;;;;;;5075275;28;19914;-77
2021/01/20 01:06:20;;;;;;;;;;;0.10;99.90;;;;;;5071364;28;20430;-77
2021/01/20 01:08:46;;;;;;;;;;;0.10;99.90;;;;;;5071798;28;20011;-77
2021/01/20 01:11:11;;;;;;;;;;;0.10;99.90;;;;;;5071661;28;19915;-77
2021/01/20 01:13:37;;;;;;;;;;;0.10;99.90;;;;;;5071869;28;20384;-77
2021/01/20 01:16:02;;;;;;;;;;;0.10;99.90;;;;;;5071530;28;19908;-77
2021/01/20 01:18:28;;;;;;;;;;;0.10;99.90;;;;;;5073175;28;20288;-76
2021/01/20 01:20:53;;;;;;;;;;;0.10;99.90;;;;;;5075655;28;19908;-77
2021/01/20 01:23:20;;;;;;;;;;;0.10;99.90;;;;;;5071566;28;20014;-77
2021/01/20 01:25:45;;;;;;;;;;;0.10;99.90;;;;;;5071151;28;19908;-77
2021/01/20 01:28:12;;;;;;;;;;;0.10;99.90;;;;;;5070317;28;19954;-77
2021/01/20 01:30:37;;;;;;;;;;;0.00;99.90;;;;;;5080552;28;20285;-77
2021/01/20 01:33:03;;;;;;;;;;;0.00;99.90;;;;;;5074121;28;19912;-77
2021/01/20 01:35:28;;;;;;;;;;;0.00;99.90;;;;;;5078000;28;20387;-77
2021/01/20 01:37:54;;;;;;;;;;;0.00;99.90;;;;;;5090903;28;19909;-77
2021/01/20 01:40:19;;;;;;;;;;;0.00;99.90;;;;;;5090745;28;20257;-77
2021/01/20 01:42:45;;;;;;;;;;;0.00;99.90;;;;;;5089572;28;19912;-77
2021/01/20 01:45:11;;;;;;;;;;;0.00;99.90;;;;;;5090793;28;19908;-77
2021/01/20 01:47:36;;;;;;;;;;;0.00;99.90;;;;;;5090792;28;20287;-77
2021/01/20 01:50:02;;;;;;;;;;;0.00;99.90;;;;;;5077941;28;19999;-77
2021/01/20 01:52:29;;;;;;;;;;;0.00;99.90;;;;;;5076679;28;19909;-77
2021/01/20 01:54:55;;;;;;;;;;;0.00;99.90;;;;;;5076746;28;20004;-77
2021/01/20 01:57:20;;;;;;;;;;;-0.10;99.90;;;;;;5077752;28;20361;-77
2021/01/20 01:59:47;;;;;;;;;;;-0.10;99.90;;;;;;5082406;28;19912;-77
2021/01/20 02:02:12;;;;;;;;;;;-0.20;99.90;;;;;;5096672;28;19955;-77
2021/01/20 02:04:38;;;;;;;;;;;-0.20;99.90;;;;;;5078026;28;19908;-77
2021/01/20 02:07:03;;;;;;;;;;;-0.20;99.90;;;;;;5077693;28;19995;-76
2021/01/20 02:09:29;;;;;;;;;;;-0.20;99.90;;;;;;5077625;28;19909;-76
2021/01/20 02:11:54;;;;;;;;;;;-0.30;99.90;;;;;;5078201;28;20350;-77
2021/01/20 02:14:28;;;;;;;;;;;-0.30;99.90;;;;;;5077872;28;20282;-77
2021/01/20 02:17:00;;;;;;;;;;;-0.30;99.90;;;;;;5077337;28;19908;-77
2021/01/20 02:19:58;;;;;;;;;;;-0.30;99.90;;;;;;5077582;28;20438;-77
2021/01/20 02:22:35;;;;;;;;;;;-0.30;99.90;;;;;;5058843;28;19912;-77
2021/01/20 02:25:06;;;;;;;;;;;-0.40;99.90;;;;;;5096044;28;20050;-77
2021/01/20 02:27:44;;;;;;;;;;;-0.40;99.90;;;;;;5092428;28;19909;-77
2021/01/20 02:30:10;;;;;;;;;;;-0.40;99.90;;;;;;5083871;28;19990;-77
2021/01/20 02:32:37;;;;;;;;;;;-0.30;99.90;;;;;;5089314;28;19912;-77
2021/01/20 02:35:03;;;;;;;;;;;-0.40;99.90;;;;;;5096992;28;19915;-77
2021/01/20 02:37:28;;;;;;;;;;;-0.30;99.90;;;;;;5096558;28;19908;-77
2021/01/20 02:39:54;;;;;;;;;;;-0.40;99.90;;;;;;5097076;28;19915;-77
2021/01/20 02:42:20;;;;;;;;;;;-0.40;99.90;;;;;;5096880;28;19912;-77
2021/01/20 02:44:45;;;;;;;;;;;-0.40;99.90;;;;;;5095674;28;19916;-77
2021/01/20 02:47:11;;;;;;;;;;;-0.40;99.90;;;;;;5095170;28;19908;-77
2021/01/20 02:49:37;;;;;;;;;;;-0.40;99.90;;;;;;5096824;28;19912;-76
2021/01/20 02:52:05;;;;;;;;;;;-0.40;99.90;;;;;;5092961;28;19924;-77
2021/01/20 02:54:32;;;;;;;;;;;-0.50;99.90;;;;;;5077361;28;19916;-77
2021/01/20 02:56:58;;;;;;;;;;;-0.50;99.90;;;;;;5076910;28;19908;-77
2021/01/20 02:59:25;;;;;;;;;;;-0.50;99.90;;;;;;5076593;28;20281;-77
2021/01/20 03:01:52;;;;;;;;;;;-0.50;99.90;;;;;;5083399;28;20009;-77
2021/01/20 03:04:19;;;;;;;;;;;-0.50;99.90;;;;;;5074121;28;20050;-77
2021/01/20 03:06:45;;;;;;;;;;;-0.50;99.90;;;;;;5073662;28;19942;-77
2021/01/20 03:09:12;;;;;;;;;;;-0.60;99.90;;;;;;5074016;28;19991;-77
2021/01/20 03:11:48;;;;;;;;;;;-0.60;99.90;;;;;;5090646;28;20316;-77
2021/01/20 03:14:15;;;;;;;;;;;-0.60;99.90;;;;;;5093157;28;19993;-78
2021/01/20 03:16:40;;;;;;;;;;;-0.60;99.90;;;;;;5092819;28;19908;-77
2021/01/20 03:19:06;;;;;;;;;;;-0.60;99.90;;;;;;5093091;28;19912;-77
2021/01/20 03:21:32;;;;;;;;;;;-0.60;99.90;;;;;;5092952;28;20424;-77
2021/01/20 03:23:57;;;;;;;;;;;-0.70;99.90;;;;;;5076066;28;19908;-77
2021/01/20 03:26:22;;;;;;;;;;;-0.70;99.90;;;;;;5073381;28;19909;-77
2021/01/20 03:28:48;;;;;;;;;;;-0.70;99.90;;;;;;5073388;28;20368;-77
2021/01/20 03:31:13;;;;;;;;;;;-0.70;99.90;;;;;;5091785;28;19938;-77
2021/01/20 03:33:39;;;;;;;;;;;-0.70;99.90;;;;;;5076976;28;19958;-77
2021/01/20 03:36:05;;;;;;;;;;;-0.70;99.90;;;;;;5073140;28;20003;-77
2021/01/20 03:38:30;;;;;;;;;;;-0.80;99.90;;;;;;5072015;28;19909;-77
2021/01/20 03:40:56;;;;;;;;;;;-0.80;99.90;;;;;;5073441;28;19975;-77
2021/01/20 03:43:21;;;;;;;;;;;-0.80;99.90;;;;;;5073022;28;19912;-77
2021/01/20 03:45:47;;;;;;;;;;;-0.80;99.90;;;;;;5072992;28;19977;-77
2021/01/20 03:48:12;;;;;;;;;;;-0.90;99.90;;;;;;5073350;28;19909;-77
2021/01/20 03:50:37;;;;;;;;;;;-0.80;99.90;;;;;;5073276;28;19954;-77
2021/01/20 03:53:03;;;;;;;;;;;-0.90;99.90;;;;;;5071896;28;19908;-77
2021/01/20 03:55:28;;;;;;;;;;;-0.90;99.90;;;;;;5071754;28;19909;-77
2021/01/20 03:57:54;;;;;;;;;;;-0.90;99.90;;;;;;5072985;28;20011;-77
2021/01/20 04:00:19;;;;;;;;;;;-0.90;99.90;;;;;;5080666;28;19916;-77
2021/01/20 04:02:45;;;;;;;;;;;-0.90;99.90;;;;;;5083221;28;19919;-78
2021/01/20 04:05:11;;;;;;;;;;;-0.90;99.90;;;;;;5072805;28;19909;-77
2021/01/20 04:07:36;;;;;;;;;;;-0.90;99.90;;;;;;5072491;28;20323;-77
2021/01/20 04:10:07;;;;;;;;;;;-0.80;99.90;;;;;;5072577;28;19909;-77
2021/01/20 04:12:34;;;;;;;;;;;-0.70;99.90;;;;;;5071363;28;19955;-77
2021/01/20 04:15:00;;;;;;;;;;;-0.70;99.90;;;;;;5085575;28;19912;-77
2021/01/20 04:17:25;;;;;;;;;;;-0.70;99.90;;;;;;5091650;28;20437;-77
2021/01/20 04:19:51;;;;;;;;;;;-0.70;99.90;;;;;;5092177;28;20007;-77
2021/01/20 04:22:16;;;;;;;;;;;-0.70;99.90;;;;;;5091916;28;19923;-77
2021/01/20 04:24:41;;;;;;;;;;;-0.70;99.90;;;;;;5091816;28;19912;-78
2021/01/20 04:27:07;;;;;;;;;;;-0.70;99.90;;;;;;5091335;28;19916;-77
2021/01/20 04:29:32;;;;;;;;;;;-0.70;99.90;;;;;;5086560;28;19916;-77
2021/01/20 04:31:58;;;;;;;;;;;-0.70;99.90;;;;;;5081155;28;19920;-77
2021/01/20 04:34:23;;;;;;;;;;;-0.70;99.90;;;;;;5072277;28;20369;-77
2021/01/20 04:36:49;;;;;;;;;;;-0.70;99.90;;;;;;5071890;28;20023;-77
2021/01/20 04:39:14;;;;;;;;;;;-0.70;99.90;;;;;;5072127;28;19975;-76
2021/01/20 04:41:40;;;;;;;;;;;-0.70;99.90;;;;;;5071899;28;19919;-76
2021/01/20 04:44:05;;;;;;;;;;;-0.70;99.90;;;;;;5070781;28;19958;-76
2021/01/20 04:46:31;;;;;;;;;;;-0.70;99.90;;;;;;5071531;28;19912;-75
2021/01/20 04:48:57;;;;;;;;;;;-0.70;99.90;;;;;;5071937;28;19986;-76
2021/01/20 04:51:24;;;;;;;;;;;-0.60;99.90;;;;;;5088454;28;20381;-76
2021/01/20 04:53:52;;;;;;;;;;;-0.70;99.90;;;;;;5091663;28;20331;-75
2021/01/20 04:56:18;;;;;;;;;;;-0.70;99.90;;;;;;5090792;28;19912;-76
2021/01/20 04:58:43;;;;;;;;;;;-0.60;99.90;;;;;;5088922;28;20415;-76
2021/01/20 05:01:09;;;;;;;;;;;-0.70;99.90;;;;;;5084885;28;19931;-76
2021/01/20 05:03:35;;;;;;;;;;;-0.70;99.90;;;;;;5075268;28;19913;-76
2021/01/20 05:06:00;;;;;;;;;;;-0.70;99.90;;;;;;5070112;28;20011;-76
2021/01/20 05:08:26;;;;;;;;;;;-0.70;99.90;;;;;;5071708;28;19995;-76
2021/01/20 05:10:51;;;;;;;;;;;-0.70;99.90;;;;;;5071449;28;20305;-76
2021/01/20 05:13:27;;;;;;;;;;;-0.70;99.90;;;;;;5071609;28;19908;-75
2021/01/20 05:15:52;;;;;;;;;;;-0.60;99.90;;;;;;5072167;28;20381;-76
2021/01/20 05:18:18;;;;;;;;;;;-0.60;99.90;;;;;;5090787;28;19908;-75
2021/01/20 05:20:43;;;;;;;;;;;-0.70;99.90;;;;;;5090380;28;19908;-75
2021/01/20 05:23:10;;;;;;;;;;;-0.60;99.90;;;;;;5090903;28;19912;-76
2021/01/20 05:25:39;;;;;;;;;;;-0.60;99.90;;;;;;5090570;28;19912;-76
2021/01/20 05:28:18;;;;;;;;;;;-0.50;99.90;;;;;;5089556;28;19915;-76
2021/01/20 05:30:48;;;;;;;;;;;-0.50;99.90;;;;;;5078187;28;19956;-75
2021/01/20 05:33:14;;;;;;;;;;;-0.40;99.90;;;;;;5083243;28;19908;-76
2021/01/20 05:35:40;;;;;;;;;;;-0.30;99.90;;;;;;5086608;28;19915;-76
2021/01/20 05:38:06;;;;;;;;;;;-0.20;99.90;;;;;;5090551;28;19912;-76
2021/01/20 05:40:33;;;;;;;;;;;-0.20;99.90;;;;;;5080884;28;19912;-76
2021/01/20 05:42:59;;;;;;;;;;;-0.10;99.90;;;;;;5069909;28;19986;-76
2021/01/20 05:45:24;;;;;;;;;;;-0.10;99.90;;;;;;5070376;28;19909;-76
2021/01/20 05:48:00;;;;;;;;;;;-0.10;99.90;;;;;;5069567;28;19913;-76
2021/01/20 05:50:25;;;;;;;;;;;-0.10;99.90;;;;;;5069830;28;20216;-76
2021/01/20 05:53:03;;;;;;;;;;;-0.10;99.90;;;;;;5071233;28;20326;-76
2021/01/20 05:55:28;;;;;;;;;;;0.00;99.90;;;;;;5069844;28;19909;-76
2021/01/20 05:57:54;;;;;;;;;;;0.00;99.90;;;;;;5070741;28;19923;-76
2021/01/20 06:00:19;;;;;;;;;;;0.10;99.90;;;;;;5078271;28;19909;-76
2021/01/20 06:02:45;;;;;;;;;;;0.10;99.90;;;;;;5074388;28;19958;-76
2021/01/20 06:05:11;;;;;;;;;;;0.10;99.90;;;;;;5071005;28;19908;-76
2021/01/20 06:07:37;;;;;;;;;;;0.20;99.90;;;;;;5069258;28;20441;-76
2021/01/20 06:10:03;;;;;;;;;;;0.20;99.90;;;;;;5069750;28;19931;-76
2021/01/20 06:12:28;;;;;;;;;;;0.20;99.90;;;;;;5071201;28;19953;-76
2021/01/20 06:14:54;;;;;;;;;;;0.20;99.90;;;;;;5070837;28;20373;-76
2021/01/20 06:17:36;;;;;;;;;;;0.20;99.90;;;;;;5085326;28;19915;-76
2021/01/20 06:20:03;;;;;;;;;;;0.20;99.90;;;;;;5089033;28;19908;-76
2021/01/20 06:22:30;;;;;;;;;;;0.20;99.90;;;;;;5090307;28;20364;-76
2021/01/20 06:25:03;;;;;;;;;;;0.30;99.90;;;;;;5090148;28;20415;-76
2021/01/20 06:27:50;;;;;;;;;;;0.30;99.90;;;;;;5089974;28;19912;-76
2021/01/20 06:30:17;;;;;;;;;;;0.20;99.90;;;;;;5075842;28;19923;-76
2021/01/20 06:32:44;;;;;;;;;;;0.30;99.90;;;;;;5082102;28;19916;-76
2021/01/20 06:35:10;;;;;;;;;;;0.30;99.90;;;;;;5081149;28;19942;-76
2021/01/20 06:37:36;;;;;;;;;;;0.30;99.90;;;;;;5081030;28;20370;-76
2021/01/20 06:40:04;;;;;;;;;;;0.30;99.90;;;;;;5074752;28;19916;-76
2021/01/20 06:42:30;;;;;;;;;;;0.30;99.90;;;;;;5082071;28;19923;-76
2021/01/20 06:45:15;;;;;;;;;;;0.40;99.90;;;;;;5082433;28;19921;-76
2021/01/20 06:47:59;;;;;;;;;;;0.40;99.90;;;;;;5086538;28;19908;-76
2021/01/20 06:50:25;;;;;;;;;;;0.40;99.90;;;;;;5074240;28;20289;-75
2021/01/20 06:53:03;;;;;;;;;;;0.40;99.90;;;;;;5074265;28;19915;-76
2021/01/20 06:55:38;;;;;;;;;;;0.40;99.90;;;;;;5074757;28;19954;-76
2021/01/20 06:58:20;;;;;;;;;;;0.40;99.90;;;;;;5078953;28;19912;-76
2021/01/20 07:01:15;;;;;;;;;;;0.40;99.90;;;;;;5085410;28;19920;-76
2021/01/20 07:03:44;;;;;;;;;;;0.50;99.90;;;;;;5079849;28;19916;-75
2021/01/20 07:06:28;;;;;;;;;;;0.50;99.90;;;;;;5086848;28;20369;-76
2021/01/20 07:08:54;;;;;;;;;;;0.50;99.90;;;;;;5087280;28;20357;-76
2021/01/20 07:11:19;;;;;;;;;;;0.60;99.90;;;;;;5094284;28;19908;-76
2021/01/20 07:13:45;;;;;;;;;;;0.70;99.90;;;;;;5091291;28;19912;-76
2021/01/20 07:16:11;;;;;;;;;;;0.70;99.90;;;;;;5086484;28;19914;-76
2021/01/20 07:18:41;;;;;;;;;;;0.80;99.90;;;;;;5082676;28;19935;-76
2021/01/20 07:21:07;;;;;;;;;;;1.00;99.90;;;;;;5084084;28;20433;-76
2021/01/20 07:23:33;;;;;;;;;;;1.20;99.90;;;;;;5080628;28;19912;-76
2021/01/20 07:25:59;;;;;;;;;;;1.50;99.90;;;;;;5081292;28;19912;-76
2021/01/20 07:28:24;;;;;;;;;;;1.80;99.90;;;;;;5072137;28;20007;-76
2021/01/20 07:31:02;;;;;;;;;;;2.10;99.90;;;;;;5073394;28;19970;-76
2021/01/20 07:33:28;;;;;;;;;;;2.30;99.90;;;;;;5084184;28;20385;-76
2021/01/20 07:35:54;;;;;;;;;;;2.50;99.90;;;;;;5075003;28;19916;-76
2021/01/20 07:38:19;;;;;;;;;;;2.60;99.90;;;;;;5093133;28;19909;-76
2021/01/20 07:40:45;;;;;;;;;;;2.70;99.90;;;;;;5093355;28;20421;-76
2021/01/20 07:43:23;;;;;;;;;;;2.80;99.90;;;;;;5078518;28;19916;-76
2021/01/20 07:45:49;;;;;;;;;;;2.90;99.90;;;;;;5085030;28;19908;-76
2021/01/20 07:48:16;;;;;;;;;;;2.90;99.90;;;;;;5104092;28;19915;-76
2021/01/20 07:50:43;;;;;;;;;;;3.00;99.90;;;;;;5085117;28;20498;-76
2021/01/20 07:53:15;;;;;;;;;;;3.00;99.90;;;;;;5081593;28;20019;-76
2021/01/20 07:55:40;;;;;;;;;;;3.00;99.90;;;;;;5072745;28;19908;-76
2021/01/20 07:58:06;;;;;;;;;;;3.10;99.90;;;;;;5073167;28;20404;-76
2021/01/20 08:00:42;;;;;;;;;;;3.00;99.90;;;;;;5089223;28;19909;-76
2021/01/20 08:03:07;;;;;;;;;;;3.00;99.90;;;;;;5088739;28;19969;-76
2021/01/20 08:05:34;;;;;;;;;;;3.00;99.90;;;;;;5093038;28;19923;-76
2021/01/20 08:08:05;;;;;;;;;;;3.00;99.90;;;;;;5095553;28;19931;-76
2021/01/20 08:10:31;;;;;;;;;;;2.90;99.90;;;;;;5086970;28;19909;-76
2021/01/20 08:12:58;;;;;;;;;;;2.90;99.90;;;;;;5072657;28;19947;-76
2021/01/20 08:15:24;;;;;;;;;;;2.80;99.90;;;;;;5085876;28;19915;-76
2021/01/20 08:17:49;;;;;;;;;;;2.80;99.90;;;;;;5095578;28;19908;-76
2021/01/20 08:20:15;;;;;;;;;;;2.80;99.90;;;;;;5092753;28;20272;-76
2021/01/20 08:22:47;;;;;;;;;;;2.80;99.90;;;;;;5092617;28;19920;-76
2021/01/20 08:25:17;;;;;;;;;;;2.80;99.90;;;;;;5087793;28;20405;-76
2021/01/20 08:27:44;;;;;;;;;;;2.90;99.90;;;;;;5084269;28;19908;-77
2021/01/20 08:30:12;;;;;;;;;;;2.90;99.90;;;;;;5091102;28;19912;-77
2021/01/20 08:32:52;;;;;;;;;;;3.00;99.90;;;;;;5072540;28;20285;-76
2021/01/20 08:35:24;;;;;;;;;;;3.10;99.90;;;;;;5079346;28;19908;-77
2021/01/20 08:37:49;;;;;;;;;;;3.20;99.90;;;;;;5092909;28;19930;-76
2021/01/20 08:40:15;;;;;;;;;;;3.20;99.90;;;;;;5091136;28;19908;-77
2021/01/20 08:42:41;;;;;;;;;;;3.20;99.90;;;;;;5080201;28;20019;-77
2021/01/20 08:45:10;;;;;;;;;;;3.30;99.90;;;;;;5085601;28;19919;-77
2021/01/20 08:47:36;;;;;;;;;;;3.30;99.90;;;;;;5098513;28;19912;-76
2021/01/20 08:50:02;;;;;;;;;;;3.30;99.90;;;;;;5098064;28;19915;-77
2021/01/20 08:52:41;;;;;;;;;;;3.30;99.90;;;;;;5085378;28;19908;-76
2021/01/20 08:55:07;;;;;;;;;;;3.30;99.90;;;;;;5083180;28;19920;-76
2021/01/20 08:57:33;;;;;;;;;;;3.30;99.90;;;;;;5085121;28;20327;-77
2021/01/20 08:59:58;;;;;;;;;;;3.30;99.90;;;;;;5090220;28;19933;-77
2021/01/20 09:02:24;;;;;;;;;;;3.30;99.90;;;;;;5073144;28;19920;-77
2021/01/20 09:04:50;;;;;;;;;;;3.30;99.90;;;;;;5085121;28;19908;-77
2021/01/20 09:07:19;;;;;;;;;;;3.30;99.90;;;;;;5077472;28;20078;-77
2021/01/20 09:09:44;;;;;;;;;;;3.40;99.90;;;;;;5071440;28;19908;-76
2021/01/20 09:12:13;;;;;;;;;;;3.40;99.90;;;;;;5085032;28;19915;-77
2021/01/20 09:14:39;;;;;;;;;;;3.40;99.90;;;;;;5082704;28;19914;-77
2021/01/20 09:17:05;;;;;;;;;;;3.40;99.90;;;;;;5094760;28;20359;-76
2021/01/20 09:19:30;;;;;;;;;;;3.40;99.90;;;;;;5082943;28;20411;-76
2021/01/20 09:21:56;;;;;;;;;;;3.40;99.90;;;;;;5076979;28;19944;-76
2021/01/20 09:24:21;;;;;;;;;;;3.40;99.90;;;;;;5070801;28;19908;-77
2021/01/20 09:26:47;;;;;;;;;;;3.50;99.90;;;;;;5091141;28;20369;-78
2021/01/20 09:29:12;;;;;;;;;;;3.50;99.90;;;;;;5089332;28;19955;-78
2021/01/20 09:31:38;;;;;;;;;;;3.50;99.90;;;;;;5090943;28;19958;-78
2021/01/20 09:34:03;;;;;;;;;;;3.50;99.90;;;;;;5090893;28;19908;-78
2021/01/20 09:36:29;;;;;;;;;;;3.50;99.90;;;;;;5090827;28;19954;-78
2021/01/20 09:38:59;;;;;;;;;;;3.60;99.90;;;;;;5090861;28;19969;-78
2021/01/20 09:41:28;;;;;;;;;;;3.70;99.90;;;;;;5090836;28;19908;-78
2021/01/20 09:43:53;;;;;;;;;;;3.80;99.90;;;;;;5090513;28;20041;-78
2021/01/20 09:46:22;;;;;;;;;;;3.80;99.90;;;;;;5079999;28;19970;-78
2021/01/20 09:48:47;;;;;;;;;;;3.90;99.90;;;;;;5070967;28;19909;-78
2021/01/20 09:51:13;;;;;;;;;;;4.00;99.90;;;;;;5072122;28;19908;-78
2021/01/20 09:53:39;;;;;;;;;;;4.10;99.90;;;;;;5073722;28;19909;-78
2021/01/20 09:56:05;;;;;;;;;;;4.20;99.90;;;;;;5072218;28;19908;-78
2021/01/20 09:58:31;;;;;;;;;;;4.20;99.90;;;;;;5072115;28;19913;-78
2021/01/20 10:00:58;;;;;;;;;;;4.30;99.90;;;;;;5072924;28;19912;-78
2021/01/20 10:03:23;;;;;;;;;;;4.40;99.90;;;;;;5071799;28;19999;-78
2021/01/20 10:05:50;;;;;;;;;;;4.50;99.90;;;;;;5072168;28;19983;-78
2021/01/20 10:08:15;;;;;;;;;;;4.70;99.90;;;;;;5073011;28;19912;-77
2021/01/20 10:10:41;;;;;;;;;;;4.80;99.90;;;;;;5075364;28;19908;-78
2021/01/20 10:13:06;;;;;;;;;;;4.90;99.90;;;;;;5078950;28;19956;-78
2021/01/20 10:15:32;;;;;;;;;;;5.00;99.90;;;;;;5088815;28;20350;-78
2021/01/20 10:17:57;;;;;;;;;;;5.20;99.90;;;;;;5088591;28;19909;-77
2021/01/20 10:20:23;;;;;;;;;;;5.30;99.90;;;;;;5073749;28;19910;-78
2021/01/20 10:22:48;;;;;;;;;;;5.40;99.90;;;;;;5073814;28;20018;-78
2021/01/20 10:25:14;;;;;;;;;;;5.50;99.90;;;;;;5077979;28;19912;-78
2021/01/20 10:27:40;;;;;;;;;;;5.60;99.90;;;;;;5093788;28;20379;-78
2021/01/20 10:30:05;;;;;;;;;;;5.70;99.90;;;;;;5094150;28;19978;-77
2021/01/20 10:32:31;;;;;;;;;;;5.60;99.90;;;;;;5090797;28;19920;-77
2021/01/20 10:34:57;;;;;;;;;;;5.50;99.90;;;;;;5084669;28;19913;-78
2021/01/20 10:37:23;;;;;;;;;;;5.50;99.90;;;;;;5077032;28;19909;-77
2021/01/20 10:39:48;;;;;;;;;;;5.60;99.90;;;;;;5073397;28;19908;-78
2021/01/20 10:42:15;;;;;;;;;;;5.60;99.90;;;;;;5087132;28;19927;-77
2021/01/20 10:44:40;;;;;;;;;;;5.70;99.90;;;;;;5094198;28;19999;-77
2021/01/20 10:47:06;;;;;;;;;;;5.80;99.90;;;;;;5093740;28;19955;-77
2021/01/20 10:49:31;;;;;;;;;;;5.80;99.90;;;;;;5094074;28;20287;-77
2021/01/20 10:51:56;;;;;;;;;;;5.80;99.90;;;;;;5094013;28;19966;-78
2021/01/20 10:54:22;;;;;;;;;;;5.80;99.90;;;;;;5094136;28;20375;-78
2021/01/20 10:56:47;;;;;;;;;;;5.90;99.90;;;;;;5093495;28;19908;-77
2021/01/20 10:59:13;;;;;;;;;;;6.00;99.90;;;;;;5087682;28;19908;-77
2021/01/20 11:01:38;;;;;;;;;;;6.10;99.90;;;;;;5074914;28;20265;-78
2021/01/20 11:04:04;;;;;;;;;;;6.20;99.90;;;;;;5090218;28;20546;-78
2021/01/20 11:06:29;;;;;;;;;;;6.20;99.90;;;;;;5092441;28;19923;-77
2021/01/20 11:08:59;;;;;;;;;;;6.30;99.90;;;;;;5087670;28;20389;-77
2021/01/20 11:11:24;;;;;;;;;;;6.30;99.90;;;;;;5086002;28;19915;-77
2021/01/20 11:13:50;;;;;;;;;;;6.40;99.90;;;;;;5093920;28;19908;-77
2021/01/20 11:16:15;;;;;;;;;;;6.50;99.90;;;;;;5086694;28;19916;-77
2021/01/20 11:18:41;;;;;;;;;;;6.60;99.90;;;;;;5092596;28;19909;-77
2021/01/20 11:21:06;;;;;;;;;;;6.60;99.90;;;;;;5089103;28;20019;-77
2021/01/20 11:23:37;;;;;;;;;;;6.60;99.90;;;;;;5079670;28;19916;-77
2021/01/20 11:26:04;;;;;;;;;;;6.60;99.90;;;;;;5080774;28;19916;-76
2021/01/20 11:28:29;;;;;;;;;;;6.60;99.90;;;;;;5080087;28;19909;-77
2021/01/20 11:30:55;;;;;;;;;;;6.40;99.90;;;;;;5078387;28;19942;-77
2021/01/20 11:33:20;;;;;;;;;;;6.30;99.90;;;;;;5073423;28;19908;-77
2021/01/20 11:35:46;;;;;;;;;;;6.10;99.90;;;;;;5079412;28;19912;-77
2021/01/20 11:38:11;;;;;;;;;;;6.10;99.90;;;;;;5082237;28;19908;-77
2021/01/20 11:40:37;;;;;;;;;;;6.00;99.90;;;;;;5092753;28;19912;-77
2021/01/20 11:43:02;;;;;;;;;;;5.90;99.90;;;;;;5093196;28;19912;-77
2021/01/20 11:45:29;;;;;;;;;;;5.90;99.90;;;;;;5092868;28;20406;-77
2021/01/20 11:47:54;;;;;;;;;;;5.80;99.90;;;;;;5092888;28;19912;-77
2021/01/20 11:50:20;;;;;;;;;;;5.80;99.90;;;;;;5091495;28;20324;-77
2021/01/20 11:52:45;;;;;;;;;;;5.90;99.90;;;;;;5092804;28;20003;-77
2021/01/20 11:55:11;;;;;;;;;;;6.00;99.90;;;;;;5091250;28;19912;-77
2021/01/20 11:57:37;;;;;;;;;;;6.10;99.90;;;;;;5075425;28;19961;-77
2021/01/20 12:00:03;;;;;;;;;;;6.20;99.90;;;;;;5073148;28;20003;-77
2021/01/20 12:02:28;;;;;;;;;;;6.30;99.90;;;;;;5073449;28;19912;-77
2021/01/20 12:04:54;;;;;;;;;;;6.30;99.90;;;;;;5083535;28;20273;-77
2021/01/20 12:07:20;;;;;;;;;;;6.40;99.90;;;;;;5089722;28;19953;-77
2021/01/20 12:09:46;;;;;;;;;;;6.60;99.90;;;;;;5084857;28;19920;-77
2021/01/20 12:12:11;;;;;;;;;;;6.60;99.90;;;;;;5073195;28;20307;-77
2021/01/20 12:14:38;;;;;;;;;;;6.70;99.90;;;;;;5071797;28;19998;-77
2021/01/20 12:17:04;;;;;;;;;;;6.70;99.90;;;;;;5072777;28;19908;-77
2021/01/20 12:19:29;;;;;;;;;;;6.70;99.90;;;;;;5072900;28;19915;-77
2021/01/20 12:21:55;;;;;;;;;;;6.70;99.90;;;;;;5073015;28;19908;-77
2021/01/20 12:24:20;;;;;;;;;;;6.60;99.90;;;;;;5072927;28;19912;-77
2021/01/20 12:26:46;;;;;;;;;;;6.60;99.90;;;;;;5072794;28;19913;-77
2021/01/20 12:29:11;;;;;;;;;;;6.50;99.90;;;;;;5073274;28;19938;-77
2021/01/20 12:31:37;;;;;;;;;;;6.60;99.90;;;;;;5072887;28;19917;-77
2021/01/20 12:34:02;;;;;;;;;;;6.50;99.90;;;;;;5079840;28;19908;-77
2021/01/20 12:36:28;;;;;;;;;;;6.50;99.90;;;;;;5084530;28;19909;-77
2021/01/20 12:38:54;;;;;;;;;;;6.60;99.90;;;;;;5072589;28;19952;-77
2021/01/20 12:41:19;;;;;;;;;;;6.50;99.90;;;;;;5072854;28;20373;-77
2021/01/20 12:43:45;;;;;;;;;;;6.60;99.90;;;;;;5072824;28;19973;-77
2021/01/20 12:46:10;;;;;;;;;;;6.60;99.90;;;;;;5072355;28;19908;-77
2021/01/20 12:48:36;;;;;;;;;;;6.60;99.90;;;;;;5072180;28;19912;-77
2021/01/20 12:51:01;;;;;;;;;;;6.60;99.90;;;;;;5070879;28;20383;-77
2021/01/20 12:53:27;;;;;;;;;;;6.60;99.90;;;;;;5075760;28;19909;-77
2021/01/20 12:55:52;;;;;;;;;;;6.60;99.90;;;;;;5085791;28;19997;-77
2021/01/20 12:58:18;;;;;;;;;;;6.60;99.90;;;;;;5072072;28;20433;-77
2021/01/20 13:00:43;;;;;;;;;;;6.60;99.90;;;;;;5071179;28;20361;-77
2021/01/20 13:03:09;;;;;;;;;;;6.60;99.90;;;;;;5077631;28;19918;-77
2021/01/20 13:05:34;;;;;;;;;;;6.70;99.90;;;;;;5078631;28;19996;-77
2021/01/20 13:07:59;;;;;;;;;;;6.70;99.90;;;;;;5071794;28;19908;-77
2021/01/20 13:10:25;;;;;;;;;;;6.80;99.90;;;;;;5071778;28;19908;-77
2021/01/20 13:12:50;;;;;;;;;;;6.80;99.90;;;;;;5071930;28;19908;-77
2021/01/20 13:15:16;;;;;;;;;;;6.80;99.90;;;;;;5071830;28;19919;-77
2021/01/20 13:17:42;;;;;;;;;;;6.80;99.90;;;;;;5071344;28;19908;-77
2021/01/20 13:20:08;;;;;;;;;;;6.80;99.90;;;;;;5071536;28;19909;-77
2021/01/20 13:22:33;;;;;;;;;;;6.70;99.90;;;;;;5071254;28;19913;-77
2021/01/20 13:24:59;;;;;;;;;;;6.60;99.90;;;;;;5071507;28;19909;-77
2021/01/20 13:27:24;;;;;;;;;;;6.60;99.90;;;;;;5071185;28;20384;-77
2021/01/20 13:29:50;;;;;;;;;;;6.60;99.90;;;;;;5071314;28;19908;-77
2021/01/20 13:32:15;;;;;;;;;;;6.60;99.90;;;;;;5071551;28;19960;-77
2021/01/20 13:34:41;;;;;;;;;;;6.70;99.90;;;;;;5085095;28;19908;-77
2021/01/20 13:37:06;;;;;;;;;;;6.80;99.90;;;;;;5074408;28;20357;-77
2021/01/20 13:39:32;;;;;;;;;;;6.90;99.90;;;;;;5071446;28;19909;-77
2021/01/20 13:41:58;;;;;;;;;;;7.00;99.90;;;;;;5071255;28;20324;-77
2021/01/20 13:44:23;;;;;;;;;;;7.10;99.90;;;;;;5071558;28;20434;-77
2021/01/20 13:46:48;;;;;;;;;;;7.20;99.90;;;;;;5074286;28;20015;-77
2021/01/20 13:49:14;;;;;;;;;;;7.30;99.90;;;;;;5081570;28;19912;-77
2021/01/20 13:51:39;;;;;;;;;;;7.40;99.90;;;;;;5072827;28;19995;-77
2021/01/20 13:54:05;;;;;;;;;;;7.50;99.90;;;;;;5070031;28;19908;-77
2021/01/20 13:56:30;;;;;;;;;;;7.50;99.90;;;;;;5069681;28;19959;-77
2021/01/20 13:58:56;;;;;;;;;;;7.50;99.90;;;;;;5071536;28;19913;-77
2021/01/20 14:01:22;;;;;;;;;;;7.40;99.90;;;;;;5071287;28;19916;-77
2021/01/20 14:03:47;;;;;;;;;;;7.40;99.90;;;;;;5076604;28;19923;-77
2021/01/20 14:06:13;;;;;;;;;;;7.30;99.90;;;;;;5082886;28;19908;-77
2021/01/20 14:08:38;;;;;;;;;;;7.20;99.90;;;;;;5070967;28;20301;-77
2021/01/20 14:11:04;;;;;;;;;;;7.10;99.90;;;;;;5070956;28;19912;-77
2021/01/20 14:13:29;;;;;;;;;;;7.10;99.90;;;;;;5071080;28;19913;-77
2021/01/20 14:15:55;;;;;;;;;;;7.00;99.90;;;;;;5070775;28;19954;-77
2021/01/20 14:18:20;;;;;;;;;;;6.90;99.90;;;;;;5069802;28;20396;-77
2021/01/20 14:20:46;;;;;;;;;;;6.90;99.90;;;;;;5070778;28;19909;-77
2021/01/20 14:23:11;;;;;;;;;;;6.80;99.90;;;;;;5071214;28;19913;-77